Time;durP1;ratioP1;P1;durP2;ratioP2;P2;SDS_P1;SDS_P2;PMS_P1;PMS_P2;Temp;Humidity;BMP_temperature;BMP_pressure;BME280_temperature;BME280_humidity;BME280_pressure;Samples;Min_cycle;Max_cycle;Signal;HPM_P1;HPM_P2
2023/06/07 00:00:23;;;;;;;11.13;7.30;;;11.40;99.90;;;;;;5157578;27;20149;-73
2023/06/07 00:02:49;;;;;;;13.25;7.03;;;11.30;99.90;;;;;;5157551;27;20074;-72
2023/06/07 00:05:14;;;;;;;7.00;5.85;;;11.30;99.90;;;;;;5158200;27;20564;-73
2023/06/07 00:07:41;;;;;;;10.00;5.93;;;11.30;99.90;;;;;;5158192;27;20491;-73
2023/06/07 00:10:07;;;;;;;13.13;7.28;;;11.30;99.90;;;;;;5157251;27;20471;-73
2023/06/07 00:12:33;;;;;;;11.15;7.18;;;11.30;99.90;;;;;;5138982;27;20050;-73
2023/06/07 00:15:02;;;;;;;14.45;7.22;;;11.30;99.90;;;;;;5157319;27;20051;-73
2023/06/07 00:17:28;;;;;;;9.70;5.45;;;11.30;99.90;;;;;;5157008;27;20417;-73
2023/06/07 00:19:56;;;;;;;13.48;6.18;;;11.30;99.90;;;;;;5157492;27;20038;-73
2023/06/07 00:22:22;;;;;;;8.45;5.70;;;11.30;99.90;;;;;;5157075;27;20067;-73
2023/06/07 00:24:51;;;;;;;7.60;5.55;;;11.20;99.90;;;;;;5139452;27;20046;-73
2023/06/07 00:27:18;;;;;;;9.55;6.03;;;11.20;99.90;;;;;;5157063;27;20051;-73
2023/06/07 00:29:43;;;;;;;13.38;6.00;;;11.20;99.90;;;;;;5157281;27;20122;-73
2023/06/07 00:32:10;;;;;;;12.18;7.00;;;11.30;99.90;;;;;;5157474;27;20415;-73
2023/06/07 00:34:36;;;;;;;10.82;6.28;;;11.20;99.90;;;;;;5157098;27;20120;-73
2023/06/07 00:37:02;;;;;;;14.90;6.90;;;11.30;99.90;;;;;;5157297;27;20485;-73
2023/06/07 00:39:28;;;;;;;13.95;6.07;;;11.20;99.90;;;;;;5157017;27;20100;-73
2023/06/07 00:41:53;;;;;;;16.92;7.82;;;11.20;99.90;;;;;;5156447;27;20050;-73
2023/06/07 00:44:19;;;;;;;8.32;4.82;;;11.20;99.90;;;;;;5156719;27;20043;-73
2023/06/07 00:46:45;;;;;;;13.50;7.38;;;11.10;99.90;;;;;;5156383;27;20073;-73
2023/06/07 00:49:16;;;;;;;12.07;6.90;;;11.20;99.90;;;;;;5156617;27;20043;-73
2023/06/07 00:51:42;;;;;;;11.98;7.05;;;11.10;99.90;;;;;;5138022;27;20050;-73
2023/06/07 00:54:08;;;;;;;9.95;7.00;;;11.10;99.90;;;;;;5157055;27;20434;-73
2023/06/07 00:56:35;;;;;;;12.73;6.68;;;11.10;99.90;;;;;;5156581;27;20053;-73
2023/06/07 00:59:02;;;;;;;13.73;6.97;;;11.10;99.90;;;;;;5156458;27;20161;-73
2023/06/07 01:01:29;;;;;;;15.80;7.53;;;11.10;99.90;;;;;;5156984;27;20387;-73
2023/06/07 01:03:55;;;;;;;12.50;6.53;;;11.10;99.90;;;;;;5138739;27;20090;-73
2023/06/07 01:06:22;;;;;;;13.70;6.55;;;11.10;99.90;;;;;;5156404;27;20047;-73
2023/06/07 01:08:49;;;;;;;13.18;6.25;;;11.10;99.90;;;;;;5156424;27;20042;-74
2023/06/07 01:11:16;;;;;;;9.23;5.50;;;11.10;99.90;;;;;;5156661;27;20042;-73
2023/06/07 01:13:42;;;;;;;13.90;6.70;;;11.10;99.90;;;;;;5156175;27;20071;-73
2023/06/07 01:16:09;;;;;;;10.85;6.43;;;11.10;99.90;;;;;;5137842;27;20099;-73
2023/06/07 01:18:36;;;;;;;15.35;7.10;;;11.00;99.90;;;;;;5156153;27;20127;-74
2023/06/07 01:21:04;;;;;;;12.63;6.05;;;11.00;99.90;;;;;;5138122;27;20102;-74
2023/06/07 01:23:33;;;;;;;14.40;6.70;;;11.10;99.90;;;;;;5156164;27;20172;-73
2023/06/07 01:26:01;;;;;;;13.63;6.35;;;11.10;99.90;;;;;;5156009;27;20046;-74
2023/06/07 01:28:33;;;;;;;12.60;5.97;;;11.10;99.90;;;;;;5155847;27;20042;-75
2023/06/07 01:31:00;;;;;;;11.18;6.75;;;11.10;99.90;;;;;;5156477;27;20035;-73
2023/06/07 01:33:28;;;;;;;9.88;6.07;;;11.10;99.90;;;;;;5155814;27;20060;-74
2023/06/07 01:35:55;;;;;;;11.32;5.75;;;11.10;99.90;;;;;;5155604;27;20095;-73
2023/06/07 01:38:22;;;;;;;10.50;4.97;;;11.00;99.90;;;;;;5155828;27;20069;-72
2023/06/07 01:40:50;;;;;;;10.50;6.70;;;11.00;99.90;;;;;;5155847;27;20035;-72
2023/06/07 01:43:17;;;;;;;14.07;6.63;;;11.00;99.90;;;;;;5157486;27;20046;-72
2023/06/07 01:45:44;;;;;;;11.32;6.40;;;11.00;99.90;;;;;;5138317;27;20043;-71
2023/06/07 01:48:11;;;;;;;13.02;5.70;;;11.00;99.90;;;;;;5157112;27;20085;-71
2023/06/07 01:50:37;;;;;;;10.48;6.15;;;11.00;99.90;;;;;;5156280;27;20043;-72
2023/06/07 01:53:03;;;;;;;6.00;5.40;;;11.00;99.90;;;;;;5154432;27;20506;-73
2023/06/07 01:55:29;;;;;;;9.95;4.90;;;10.90;99.90;;;;;;5155794;27;20050;-73
2023/06/07 01:58:03;;;;;;;10.65;5.78;;;10.90;99.90;;;;;;5120786;27;20053;-73
2023/06/07 02:00:40;;;;;;;10.82;5.80;;;10.90;99.90;;;;;;5155760;27;20122;-73
2023/06/07 02:03:22;;;;;;;8.98;5.85;;;10.80;99.90;;;;;;5155942;27;20070;-73
2023/06/07 02:05:52;;;;;;;8.23;5.10;;;10.80;99.90;;;;;;5155296;27;20067;-74
2023/06/07 02:08:35;;;;;;;14.30;6.05;;;10.80;99.90;;;;;;5155174;27;20046;-73
2023/06/07 02:11:04;;;;;;;10.10;5.15;;;10.90;99.90;;;;;;5119970;27;20043;-73
2023/06/07 02:13:34;;;;;;;11.73;5.72;;;10.90;99.90;;;;;;5136882;27;20501;-73
2023/06/07 02:16:04;;;;;;;13.10;6.72;;;10.80;99.90;;;;;;5155413;27;20094;-74
2023/06/07 02:18:31;;;;;;;14.10;5.80;;;10.90;99.90;;;;;;5154795;27;20038;-73
2023/06/07 02:20:56;;;;;;;12.98;6.13;;;10.90;99.90;;;;;;5154942;27;20078;-73
2023/06/07 02:23:22;;;;;;;11.50;5.18;;;11.00;99.90;;;;;;5136194;27;20057;-73
2023/06/07 02:25:49;;;;;;;11.40;5.40;;;11.00;99.90;;;;;;5119630;27;20047;-73
2023/06/07 02:28:15;;;;;;;13.93;5.45;;;11.00;99.90;;;;;;5155727;27;20057;-73
2023/06/07 02:30:41;;;;;;;11.65;5.60;;;11.10;99.90;;;;;;5154187;27;20117;-72
2023/06/07 02:33:09;;;;;;;19.02;6.40;;;11.10;99.90;;;;;;5154350;27;20047;-73
2023/06/07 02:35:35;;;;;;;7.03;4.18;;;11.10;99.90;;;;;;5154139;27;20555;-73
2023/06/07 02:38:04;;;;;;;7.88;4.22;;;11.20;99.90;;;;;;5155241;27;20042;-73
2023/06/07 02:40:29;;;;;;;9.05;5.10;;;11.20;99.90;;;;;;5154291;27;20042;-73
2023/06/07 02:42:55;;;;;;;8.95;5.47;;;11.30;99.90;;;;;;5154728;27;20046;-73
2023/06/07 02:45:21;;;;;;;10.65;5.57;;;11.30;99.90;;;;;;5154894;27;20056;-73
2023/06/07 02:47:46;;;;;;;9.05;5.50;;;11.40;99.90;;;;;;5153988;27;20118;-73
2023/06/07 02:50:12;;;;;;;11.13;4.70;;;11.30;99.90;;;;;;5154380;27;20041;-73
2023/06/07 02:52:38;;;;;;;7.53;4.13;;;11.40;99.90;;;;;;5153942;27;20058;-73
2023/06/07 02:55:04;;;;;;;10.20;5.50;;;11.40;99.90;;;;;;5154391;27;20086;-73
2023/06/07 02:57:30;;;;;;;13.25;5.35;;;11.50;99.90;;;;;;5154147;27;20421;-73
2023/06/07 02:59:56;;;;;;;10.55;6.00;;;11.50;99.90;;;;;;5154227;27;20042;-73
2023/06/07 03:02:22;;;;;;;5.68;4.07;;;11.60;99.90;;;;;;5135918;27;20489;-73
2023/06/07 03:04:48;;;;;;;9.07;4.65;;;11.60;99.90;;;;;;5154112;27;20102;-73
2023/06/07 03:07:14;;;;;;;7.13;4.93;;;11.70;99.90;;;;;;5154192;27;20515;-73
2023/06/07 03:09:40;;;;;;;12.18;4.53;;;11.70;99.90;;;;;;5153998;27;20126;-73
2023/06/07 03:12:06;;;;;;;12.07;5.22;;;11.70;99.90;;;;;;5154072;27;20047;-73
2023/06/07 03:14:33;;;;;;;12.77;6.00;;;11.80;99.90;;;;;;5153931;27;20050;-73
2023/06/07 03:16:59;;;;;;;13.52;5.75;;;11.70;99.90;;;;;;5136002;27;20054;-73
2023/06/07 03:19:24;;;;;;;10.48;5.65;;;11.80;99.90;;;;;;5154236;27;20042;-73
2023/06/07 03:21:52;;;;;;;12.07;6.13;;;11.80;99.90;;;;;;5154025;27;20045;-73
2023/06/07 03:24:18;;;;;;;15.05;5.82;;;11.80;99.90;;;;;;5154335;27;20042;-73
2023/06/07 03:26:43;;;;;;;11.52;5.30;;;11.80;99.90;;;;;;5153960;27;20417;-73
2023/06/07 03:29:09;;;;;;;13.02;6.00;;;11.90;99.90;;;;;;5154279;27;20477;-73
2023/06/07 03:31:36;;;;;;;18.05;6.78;;;11.90;99.90;;;;;;5153794;27;20123;-73
2023/06/07 03:34:01;;;;;;;11.02;5.40;;;11.90;99.90;;;;;;5153816;27;20057;-73
2023/06/07 03:36:29;;;;;;;11.27;5.20;;;11.90;99.90;;;;;;5154169;27;20042;-73
2023/06/07 03:38:55;;;;;;;12.80;5.70;;;11.90;99.90;;;;;;5153930;27;20089;-73
2023/06/07 03:41:21;;;;;;;9.93;5.32;;;12.00;99.90;;;;;;5154000;27;20051;-73
2023/06/07 03:43:47;;;;;;;8.70;5.10;;;12.00;99.90;;;;;;5135306;27;20042;-73
2023/06/07 03:46:13;;;;;;;7.22;3.75;;;12.00;99.90;;;;;;5154238;27;20049;-73
2023/06/07 03:48:38;;;;;;;14.35;5.50;;;12.10;99.90;;;;;;5135382;27;20176;-73
2023/06/07 03:51:06;;;;;;;12.30;4.93;;;12.10;99.90;;;;;;5153722;27;20050;-73
2023/06/07 03:53:32;;;;;;;12.13;5.18;;;12.10;99.90;;;;;;5153804;27;20050;-73
2023/06/07 03:55:58;;;;;;;14.38;5.68;;;12.20;99.90;;;;;;5154213;27;20043;-73
2023/06/07 03:58:24;;;;;;;13.35;5.22;;;12.20;99.90;;;;;;5154325;27;20050;-73
2023/06/07 04:00:51;;;;;;;14.52;5.40;;;12.20;99.90;;;;;;5154113;27;20069;-73
2023/06/07 04:03:24;;;;;;;13.27;5.57;;;12.20;99.90;;;;;;5153692;27;20047;-73
2023/06/07 04:05:53;;;;;;;7.47;4.55;;;12.20;99.90;;;;;;5135572;27;20039;-73
2023/06/07 04:08:20;;;;;;;20.17;6.07;;;12.20;99.90;;;;;;5153669;27;20066;-72
2023/06/07 04:10:45;;;;;;;13.75;6.47;;;12.20;99.90;;;;;;5153224;27;20508;-73
2023/06/07 04:13:11;;;;;;;14.02;5.32;;;12.20;99.90;;;;;;5134991;27;20050;-73
2023/06/07 04:15:37;;;;;;;12.88;6.00;;;12.30;99.90;;;;;;5153666;27;20057;-72
2023/06/07 04:18:03;;;;;;;9.80;5.05;;;12.30;99.90;;;;;;5157181;27;20053;-73
2023/06/07 04:20:29;;;;;;;13.00;5.80;;;12.30;99.90;;;;;;5157104;27;20042;-73
2023/06/07 04:22:55;;;;;;;9.10;5.97;;;12.40;99.90;;;;;;5157129;27;20049;-72
2023/06/07 04:25:26;;;;;;;9.95;5.05;;;12.40;99.90;;;;;;5157058;27;20089;-72
2023/06/07 04:27:59;;;;;;;10.73;5.68;;;12.40;99.90;;;;;;5139149;27;20054;-73
2023/06/07 04:30:28;;;;;;;;;;;12.50;99.90;;;;;;5140022;27;20054;-72
2023/06/07 04:32:54;;;;;;;7.57;4.80;;;12.40;99.90;;;;;;5157016;27;20002;-72
2023/06/07 04:35:20;;;;;;;14.35;5.90;;;12.50;99.90;;;;;;5156982;27;20502;-72
2023/06/07 04:37:46;;;;;;;10.43;4.50;;;12.50;99.90;;;;;;5138865;27;20046;-73
2023/06/07 04:40:14;;;;;;;10.43;5.13;;;12.60;99.90;;;;;;5157338;27;20042;-72
2023/06/07 04:42:40;;;;;;;14.30;5.72;;;12.60;99.90;;;;;;5157491;27;20157;-73
2023/06/07 04:45:07;;;;;;;8.70;5.22;;;12.70;99.90;;;;;;5156910;27;20069;-73
2023/06/07 04:47:33;;;;;;;10.63;5.32;;;12.70;99.90;;;;;;5156742;27;20043;-72
2023/06/07 04:50:00;;;;;;;10.57;5.60;;;12.80;99.90;;;;;;5156614;27;20038;-72
2023/06/07 04:52:28;;;;;;;11.45;4.97;;;12.80;99.90;;;;;;5137872;27;20547;-72
2023/06/07 04:54:56;;;;;;;11.02;5.70;;;12.90;99.90;;;;;;5156521;27;20046;-72
2023/06/07 04:57:23;;;;;;;14.40;5.25;;;12.90;99.90;;;;;;5156710;27;20108;-74
2023/06/07 04:59:51;;;;;;;11.23;4.78;;;12.90;99.90;;;;;;5156200;27;20043;-73
2023/06/07 05:02:25;;;;;;;13.30;5.45;;;13.00;99.90;;;;;;5157308;27;20050;-72
2023/06/07 05:04:53;;;;;;;11.10;4.93;;;13.00;99.90;;;;;;5140549;27;20051;-72
2023/06/07 05:07:19;;;;;;;15.23;5.00;;;13.10;99.90;;;;;;5158505;27;20057;-72
2023/06/07 05:09:45;;;;;;;13.52;4.88;;;13.10;99.90;;;;;;5157675;27;20039;-71
2023/06/07 05:12:11;;;;;;;10.32;4.93;;;13.10;99.90;;;;;;5157695;27;20058;-73
2023/06/07 05:14:37;;;;;;;12.73;4.93;;;13.20;99.90;;;;;;5138649;27;20050;-73
2023/06/07 05:17:02;;;;;;;11.95;4.75;;;13.20;99.90;;;;;;5156052;27;20118;-73
2023/06/07 05:19:29;;;;;;;10.98;4.93;;;13.30;99.90;;;;;;5137743;27;20038;-73
2023/06/07 05:21:55;;;;;;;11.20;4.53;;;13.30;99.90;;;;;;5137483;27;20055;-72
2023/06/07 05:24:20;;;;;;;13.35;5.05;;;13.30;99.90;;;;;;5155902;27;20046;-71
2023/06/07 05:26:46;;;;;;;10.57;5.00;;;13.30;99.90;;;;;;5137227;27;20127;-72
2023/06/07 05:29:12;;;;;;;9.95;4.47;;;13.20;99.90;;;;;;5155040;27;20056;-73
2023/06/07 05:31:37;;;;;;;9.73;4.80;;;13.20;99.90;;;;;;5155601;27;20047;-73
2023/06/07 05:34:03;;;;;;;8.98;4.55;;;13.30;99.90;;;;;;5137326;27;20039;-73
2023/06/07 05:36:29;;;;;;;7.75;4.10;;;13.30;99.90;;;;;;5155947;27;20047;-73
2023/06/07 05:38:56;;;;;;;13.27;5.03;;;13.40;99.90;;;;;;5155446;27;20061;-72
2023/06/07 05:41:21;;;;;;;13.95;4.38;;;13.40;99.90;;;;;;5155677;27;20050;-74
2023/06/07 05:43:47;;;;;;;9.50;4.03;;;13.40;99.90;;;;;;5137219;27;20069;-73
2023/06/07 05:46:12;;;;;;;11.05;4.50;;;13.50;99.90;;;;;;5154911;27;20068;-74
2023/06/07 05:48:38;;;;;;;10.73;4.68;;;13.50;99.90;;;;;;5137164;27;20043;-73
2023/06/07 05:51:04;;;;;;;10.23;4.55;;;13.50;99.90;;;;;;5136865;27;20051;-74
2023/06/07 05:53:30;;;;;;;6.93;4.28;;;13.60;99.90;;;;;;5155156;27;20095;-73
2023/06/07 05:55:56;;;;;;;15.65;5.05;;;13.70;99.90;;;;;;5155297;27;20163;-73
2023/06/07 05:58:22;;;;;;;9.57;4.57;;;13.70;99.90;;;;;;5155360;27;20050;-73
2023/06/07 06:00:48;;;;;;;11.70;4.10;;;13.80;99.90;;;;;;5155042;27;20538;-73
2023/06/07 06:03:17;;;;;;;9.10;4.40;;;13.80;99.90;;;;;;5154800;27;20050;-74
2023/06/07 06:05:43;;;;;;;8.80;4.32;;;14.00;99.90;;;;;;5155270;27;20171;-72
2023/06/07 06:08:09;;;;;;;8.75;4.78;;;14.00;99.90;;;;;;5136420;27;20479;-74
2023/06/07 06:10:34;;;;;;;8.95;4.30;;;14.00;99.90;;;;;;5154959;27;20050;-73
2023/06/07 06:13:00;;;;;;;10.50;4.40;;;14.00;99.90;;;;;;5136453;27;20067;-74
2023/06/07 06:15:26;;;;;;;10.82;4.82;;;13.90;99.90;;;;;;5154591;27;20039;-73
2023/06/07 06:17:54;;;;;;;13.55;4.60;;;14.00;99.90;;;;;;5136784;27;20055;-74
2023/06/07 06:20:20;;;;;;;9.90;4.50;;;14.00;99.90;;;;;;5136545;27;20050;-74
2023/06/07 06:22:46;;;;;;;9.40;4.05;;;13.90;99.90;;;;;;5154890;27;20085;-73
2023/06/07 06:25:13;;;;;;;10.15;4.68;;;14.00;99.90;;;;;;5155182;27;20156;-74
2023/06/07 06:27:40;;;;;;;12.38;6.13;;;14.30;99.90;;;;;;5136453;27;20086;-74
2023/06/07 06:30:06;;;;;;;11.15;4.35;;;14.40;99.90;;;;;;5154919;27;20038;-75
2023/06/07 06:32:32;;;;;;;8.02;4.15;;;14.40;99.90;;;;;;5136130;27;20064;-74
2023/06/07 06:34:58;;;;;;;9.15;4.72;;;14.80;99.90;;;;;;5154680;27;20125;-75
2023/06/07 06:37:23;;;;;;;7.93;4.15;;;15.60;99.90;;;;;;5154494;27;20485;-74
2023/06/07 06:39:51;;;;;;;13.77;4.50;;;16.00;99.90;;;;;;5154363;27;20465;-73
2023/06/07 06:42:17;;;;;;;11.25;4.47;;;16.50;99.90;;;;;;5155087;27;20057;-75
2023/06/07 06:44:43;;;;;;;7.13;4.55;;;17.00;99.90;;;;;;5154921;27;20034;-75
2023/06/07 06:47:09;;;;;;;6.78;4.03;;;17.70;99.90;;;;;;5154515;27;20532;-75
2023/06/07 06:49:35;;;;;;;9.80;4.82;;;17.40;99.90;;;;;;5154351;27;20053;-73
2023/06/07 06:52:01;;;;;;;7.25;4.22;;;16.90;99.90;;;;;;5154235;27;20054;-73
2023/06/07 06:54:26;;;;;;;9.95;5.53;;;16.20;99.90;;;;;;5154744;27;20057;-75
2023/06/07 06:56:53;;;;;;;8.55;4.15;;;15.60;99.90;;;;;;5154770;27;20546;-76
2023/06/07 06:59:19;;;;;;;7.72;4.22;;;15.70;99.90;;;;;;5155151;27;20077;-71
2023/06/07 07:01:46;;;;;;;7.57;3.90;;;16.60;99.90;;;;;;5154285;27;20470;-75
2023/06/07 07:04:16;;;;;;;8.57;3.42;;;18.10;99.90;;;;;;5154271;27;20542;-75
2023/06/07 07:06:42;;;;;;;7.43;3.08;;;18.90;99.90;;;;;;5135780;27;20436;-75
2023/06/07 07:09:09;;;;;;;8.65;4.28;;;19.90;99.90;;;;;;5154268;27;20043;-74
2023/06/07 07:11:35;;;;;;;5.53;3.28;;;20.90;99.90;;;;;;5154813;27;20107;-73
2023/06/07 07:14:01;;;;;;;6.78;3.22;;;20.70;97.90;;;;;;5153984;27;20142;-75
2023/06/07 07:16:29;;;;;;;4.53;2.53;;;20.80;99.90;;;;;;5154430;27;20093;-75
2023/06/07 07:18:55;;;;;;;6.47;3.22;;;20.90;99.90;;;;;;5135980;27;20082;-76
2023/06/07 07:21:20;;;;;;;11.55;3.85;;;20.90;99.90;;;;;;5153759;27;20070;-75
2023/06/07 07:23:46;;;;;;;5.28;3.45;;;21.60;99.90;;;;;;5135754;27;20042;-76
2023/06/07 07:26:12;;;;;;;9.45;3.50;;;21.90;99.40;;;;;;5153923;27;20521;-76
2023/06/07 07:28:37;;;;;;;6.82;3.50;;;22.00;98.90;;;;;;5153886;27;20050;-75
2023/06/07 07:31:03;;;;;;;8.63;3.30;;;22.30;98.30;;;;;;5153974;27;20126;-75
2023/06/07 07:33:29;;;;;;;7.30;3.65;;;22.50;97.50;;;;;;5118961;27;20051;-72
2023/06/07 07:35:54;;;;;;;7.75;3.08;;;20.90;93.60;;;;;;5153845;27;20053;-74
2023/06/07 07:38:20;;;;;;;8.18;3.00;;;21.00;97.50;;;;;;5153959;27;20046;-75
2023/06/07 07:40:47;;;;;;;6.78;4.35;;;21.30;97.80;;;;;;5153961;27;20398;-74
2023/06/07 07:43:12;;;;;;;5.35;3.25;;;21.50;95.10;;;;;;5153459;27;20039;-74
2023/06/07 07:45:38;;;;;;;8.38;3.40;;;21.40;96.80;;;;;;5118086;27;20045;-74
2023/06/07 07:48:04;;;;;;;9.55;3.50;;;20.90;94.90;;;;;;5153771;27;20039;-74
2023/06/07 07:50:31;;;;;;;8.23;3.30;;;20.50;97.40;;;;;;5153918;27;20068;-75
2023/06/07 07:52:57;;;;;;;7.10;3.30;;;20.60;97.60;;;;;;5139714;27;20522;-75
2023/06/07 07:55:23;;;;;;;6.40;3.35;;;21.20;97.60;;;;;;5158083;27;20078;-75
2023/06/07 07:57:50;;;;;;;5.65;3.15;;;21.30;95.90;;;;;;5157625;27;20516;-74
2023/06/07 08:00:17;;;;;;;7.05;3.22;;;21.60;96.30;;;;;;5139341;27;20039;-75
2023/06/07 08:02:43;;;;;;;4.88;3.30;;;21.70;96.60;;;;;;5157588;27;20050;-75
2023/06/07 08:05:09;;;;;;;7.30;3.60;;;21.90;96.30;;;;;;5139422;27;20471;-71
2023/06/07 08:07:35;;;;;;;6.30;3.10;;;21.80;95.60;;;;;;5158056;27;20035;-70
2023/06/07 08:10:01;;;;;;;12.10;3.85;;;22.50;95.70;;;;;;5157605;27;20438;-76
2023/06/07 08:12:27;;;;;;;7.88;3.47;;;22.20;95.30;;;;;;5158145;27;20046;-76
2023/06/07 08:14:52;;;;;;;5.78;3.25;;;22.60;95.40;;;;;;5157490;27;20453;-73
2023/06/07 08:17:19;;;;;;;4.78;3.78;;;21.90;94.10;;;;;;5157484;27;20057;-75
2023/06/07 08:19:46;;;;;;;7.50;3.08;;;22.10;95.60;;;;;;5139488;27;20035;-74
2023/06/07 08:22:12;;;;;;;8.00;3.53;;;22.40;94.90;;;;;;5157360;27;20058;-75
2023/06/07 08:24:38;;;;;;;8.57;4.07;;;23.10;95.20;;;;;;5157771;27;20046;-74
2023/06/07 08:27:04;;;;;;;9.18;5.28;;;22.40;94.20;;;;;;5158903;27;20043;-74
2023/06/07 08:29:30;;;;;;;10.70;3.63;;;22.50;94.60;;;;;;5158683;27;20095;-74
2023/06/07 08:31:56;;;;;;;6.38;3.90;;;22.70;94.80;;;;;;5123415;27;20054;-75
2023/06/07 08:34:28;;;;;;;7.03;3.60;;;22.40;93.40;;;;;;5157829;27;20047;-74
2023/06/07 08:36:58;;;;;;;6.38;3.45;;;22.30;93.90;;;;;;5138785;27;20375;-75
2023/06/07 08:39:23;;;;;;;8.50;3.60;;;22.00;94.20;;;;;;5157136;27;20057;-75
2023/06/07 08:41:49;;;;;;;5.93;3.90;;;22.20;94.50;;;;;;5138659;27;20050;-75
2023/06/07 08:44:15;;;;;;;5.70;3.20;;;21.90;94.70;;;;;;5156671;27;20043;-75
2023/06/07 08:46:42;;;;;;;7.50;3.83;;;21.80;94.00;;;;;;5156615;27;20038;-75
2023/06/07 08:49:11;;;;;;;7.15;3.35;;;21.60;93.60;;;;;;5157174;27;20042;-74
2023/06/07 08:51:37;;;;;;;6.88;3.40;;;21.80;93.40;;;;;;5155870;27;20095;-75
2023/06/07 08:54:04;;;;;;;6.45;3.78;;;21.80;94.20;;;;;;5156687;27;20054;-75
2023/06/07 08:56:33;;;;;;;9.75;3.60;;;22.50;94.30;;;;;;5156687;27;20081;-74
2023/06/07 08:59:00;;;;;;;6.30;3.65;;;23.30;93.10;;;;;;5156552;27;20081;-75
2023/06/07 09:01:29;;;;;;;9.77;3.28;;;22.60;93.90;;;;;;5137716;27;20040;-75
2023/06/07 09:03:55;;;;;;;7.88;4.30;;;23.50;92.60;;;;;;5156276;27;20038;-75
2023/06/07 09:06:22;;;;;;;9.40;4.10;;;23.40;93.00;;;;;;5137765;27;20098;-75
2023/06/07 09:08:48;;;;;;;7.55;3.55;;;23.30;93.10;;;;;;5156428;27;20174;-75
2023/06/07 09:11:15;;;;;;;9.77;3.47;;;23.60;92.90;;;;;;5156277;27;20175;-73
2023/06/07 09:13:41;;;;;;;8.00;3.65;;;24.00;92.50;;;;;;5156744;27;20054;-74
2023/06/07 09:16:10;;;;;;;6.50;3.53;;;24.20;92.40;;;;;;5137969;27;20147;-74
2023/06/07 09:18:46;;;;;;;7.72;3.53;;;24.60;91.80;;;;;;5156105;27;20061;-74
2023/06/07 09:21:26;;;;;;;8.07;3.33;;;24.10;91.00;;;;;;5137946;27;20057;-74
2023/06/07 09:23:53;;;;;;;7.53;3.05;;;24.10;91.00;;;;;;5156319;27;20049;-72
2023/06/07 09:26:25;;;;;;;7.28;3.25;;;23.90;91.30;;;;;;5156047;27;20047;-75
2023/06/07 09:28:51;;;;;;;9.07;3.90;;;24.00;91.70;;;;;;5156504;27;20357;-74
2023/06/07 09:31:30;;;;;;;5.85;3.30;;;23.70;91.80;;;;;;5156077;27;20095;-72
2023/06/07 09:33:56;;;;;;;6.63;3.42;;;23.60;90.10;;;;;;5156036;27;20507;-74
2023/06/07 09:36:23;;;;;;;11.25;4.20;;;23.40;91.50;;;;;;5155894;27;20082;-74
2023/06/07 09:38:48;;;;;;;8.43;3.92;;;22.90;92.20;;;;;;5121195;27;20058;-74
2023/06/07 09:41:14;;;;;;;8.68;3.10;;;22.70;92.50;;;;;;5136957;27;20034;-74
2023/06/07 09:43:47;;;;;;;7.50;4.10;;;22.50;91.90;;;;;;5156128;27;20047;-74
2023/06/07 09:46:18;;;;;;;8.80;4.22;;;22.70;91.90;;;;;;5156575;27;20158;-74
2023/06/07 09:48:45;;;;;;;9.20;3.90;;;23.20;91.90;;;;;;5155772;27;20043;-72
2023/06/07 09:51:10;;;;;;;7.68;3.92;;;22.90;92.20;;;;;;5155652;27;20042;-74
2023/06/07 09:54:05;;;;;;;6.30;3.55;;;22.90;92.60;;;;;;5155825;27;20065;-75
2023/06/07 09:56:31;;;;;;;6.07;4.38;;;22.60;91.20;;;;;;5155940;27;20121;-73
2023/06/07 09:59:11;;;;;;;5.82;3.38;;;22.20;92.50;;;;;;5137522;27;20093;-75
2023/06/07 10:01:41;;;;;;;5.65;3.30;;;22.70;92.20;;;;;;5155464;27;20047;-74
2023/06/07 10:04:08;;;;;;;6.95;2.80;;;22.70;92.80;;;;;;5137155;27;20042;-74
2023/06/07 10:06:38;;;;;;;7.65;3.53;;;22.90;92.10;;;;;;5155435;27;20075;-75
2023/06/07 10:09:06;;;;;;;6.10;4.97;;;23.00;92.20;;;;;;5155300;27;20408;-74
2023/06/07 10:11:33;;;;;;;6.70;3.58;;;22.30;91.30;;;;;;5155303;27;20054;-74
2023/06/07 10:14:16;;;;;;;4.40;3.30;;;22.30;92.50;;;;;;5154487;27;20050;-74
2023/06/07 10:16:54;;;;;;;6.20;3.78;;;22.50;92.10;;;;;;5155008;27;20049;-74
2023/06/07 10:19:40;;;;;;;7.25;3.60;;;22.60;92.10;;;;;;5136917;27;20077;-73
2023/06/07 10:22:11;;;;;;;4.97;3.58;;;22.50;91.60;;;;;;5155517;27;20039;-74
2023/06/07 10:24:58;;;;;;;9.25;5.10;;;22.40;92.70;;;;;;5136532;27;20050;-73
2023/06/07 10:27:26;;;;;;;7.03;3.85;;;22.10;92.70;;;;;;5154904;27;20046;-74
2023/06/07 10:29:55;;;;;;;10.85;5.53;;;22.30;92.70;;;;;;5155074;27;20042;-73
2023/06/07 10:32:25;;;;;;;7.25;3.90;;;22.20;92.50;;;;;;5154872;27;20078;-73
2023/06/07 10:34:54;;;;;;;8.35;3.33;;;22.00;92.60;;;;;;5154788;27;20058;-74
2023/06/07 10:37:20;;;;;;;10.93;3.97;;;21.90;93.20;;;;;;5154704;27;20046;-72
2023/06/07 10:39:46;;;;;;;5.45;3.60;;;22.20;92.80;;;;;;5155185;27;20038;-74
2023/06/07 10:42:13;;;;;;;6.95;4.15;;;22.70;93.20;;;;;;5154548;27;20490;-74
2023/06/07 10:44:39;;;;;;;7.90;3.92;;;22.50;92.90;;;;;;5154505;27;20122;-73
2023/06/07 10:47:29;;;;;;;7.05;4.10;;;22.10;92.10;;;;;;5154431;27;20074;-73
2023/06/07 10:49:56;;;;;;;8.73;3.42;;;22.50;92.30;;;;;;5154853;27;20049;-73
2023/06/07 10:52:28;;;;;;;10.73;3.85;;;21.90;93.00;;;;;;5154810;27;20090;-74
2023/06/07 10:54:54;;;;;;;11.80;5.10;;;22.00;93.10;;;;;;5135744;27;20529;-74
2023/06/07 10:57:34;;;;;;;5.22;3.53;;;21.20;92.80;;;;;;5154535;27;20086;-74
2023/06/07 11:00:29;;;;;;;8.63;4.15;;;21.90;92.50;;;;;;5154121;27;20046;-76
2023/06/07 11:03:16;;;;;;;5.85;4.57;;;22.10;92.80;;;;;;5154209;27;20062;-73
2023/06/07 11:05:53;;;;;;;5.18;4.22;;;22.20;92.60;;;;;;5154182;27;20117;-74
2023/06/07 11:08:27;;;;;;;8.75;4.78;;;21.90;93.00;;;;;;5154013;27;20039;-73
2023/06/07 11:10:59;;;;;;;11.65;4.50;;;21.80;92.50;;;;;;5153925;27;20042;-74
2023/06/07 11:13:45;;;;;;;6.05;3.63;;;21.60;92.80;;;;;;5153916;27;20082;-73
2023/06/07 11:16:23;;;;;;;7.72;4.30;;;22.00;92.80;;;;;;5083755;27;20428;-73
2023/06/07 11:19:05;;;;;;;7.32;4.72;;;21.90;92.30;;;;;;5153971;27;20479;-73
2023/06/07 11:21:55;;;;;;;10.38;4.88;;;21.60;92.50;;;;;;5154703;27;20038;-74
2023/06/07 11:24:21;;;;;;;8.13;4.88;;;21.80;91.80;;;;;;5138401;27;20051;-72
2023/06/07 11:26:50;;;;;;;7.18;5.10;;;21.40;92.00;;;;;;5158265;27;20432;-74
2023/06/07 11:29:16;;;;;;;9.68;4.88;;;21.60;92.20;;;;;;5157992;27;20046;-72
2023/06/07 11:31:56;;;;;;;8.52;5.07;;;21.60;92.60;;;;;;5157722;27;20053;-73
2023/06/07 11:34:22;;;;;;;9.75;5.25;;;21.90;92.40;;;;;;5158627;27;20412;-72
2023/06/07 11:36:48;;;;;;;7.32;4.55;;;21.40;92.10;;;;;;5157937;27;20043;-72
2023/06/07 11:39:17;;;;;;;11.50;5.68;;;21.60;92.90;;;;;;5157685;27;20049;-72
2023/06/07 11:41:43;;;;;;;9.43;4.97;;;21.40;92.60;;;;;;5158285;27;20101;-72
2023/06/07 11:44:10;;;;;;;7.70;5.30;;;21.30;92.70;;;;;;5158927;27;20134;-72
2023/06/07 11:46:39;;;;;;;8.32;5.25;;;20.90;93.10;;;;;;5140430;27;20051;-71
2023/06/07 11:49:07;;;;;;;9.90;5.03;;;20.60;93.70;;;;;;5159303;27;20054;-72
2023/06/07 11:51:33;;;;;;;11.82;5.95;;;20.90;93.60;;;;;;5159262;27;20047;-73
2023/06/07 11:53:59;;;;;;;11.05;6.30;;;20.80;93.30;;;;;;5159070;27;20053;-73
2023/06/07 11:56:26;;;;;;;10.70;5.35;;;20.80;93.30;;;;;;5157781;27;20050;-72
2023/06/07 11:58:52;;;;;;;7.70;5.00;;;20.80;93.60;;;;;;5139556;27;20055;-73
2023/06/07 12:01:19;;;;;;;8.65;4.80;;;20.70;93.50;;;;;;5157566;27;20042;-73
2023/06/07 12:03:45;;;;;;;10.88;5.13;;;20.90;93.30;;;;;;5157833;27;20074;-72
2023/06/07 12:06:11;;;;;;;9.00;5.20;;;21.00;93.40;;;;;;5139384;27;20132;-74
2023/06/07 12:08:37;;;;;;;9.60;4.80;;;20.90;93.20;;;;;;5157359;27;20525;-73
2023/06/07 12:11:03;;;;;;;7.60;4.72;;;21.10;93.30;;;;;;5121950;27;20039;-73
2023/06/07 12:13:39;;;;;;;8.45;5.05;;;21.10;93.20;;;;;;5157658;27;20227;-73
2023/06/07 12:16:07;;;;;;;10.02;4.97;;;20.70;93.40;;;;;;5157308;27;20095;-74
2023/06/07 12:18:38;;;;;;;9.38;5.50;;;20.80;93.70;;;;;;5138937;27;20103;-74
2023/06/07 12:21:08;;;;;;;11.35;5.35;;;21.20;94.10;;;;;;5157150;27;20046;-72
2023/06/07 12:23:44;;;;;;;9.48;5.50;;;21.20;93.50;;;;;;5139052;27;20062;-73
2023/06/07 12:26:11;;;;;;;8.32;5.65;;;21.20;93.70;;;;;;5138829;27;20051;-73
2023/06/07 12:28:42;;;;;;;7.93;4.90;;;21.10;93.40;;;;;;5157445;27;20074;-73
2023/06/07 12:31:26;;;;;;;8.77;5.22;;;20.80;93.70;;;;;;5139305;27;20054;-73
2023/06/07 12:33:54;;;;;;;8.50;4.90;;;20.60;93.80;;;;;;5156838;27;20121;-72
2023/06/07 12:36:20;;;;;;;8.68;5.25;;;20.50;93.70;;;;;;5138094;27;20045;-74
2023/06/07 12:38:46;;;;;;;6.57;4.90;;;20.70;93.80;;;;;;5156821;27;20074;-72
2023/06/07 12:41:12;;;;;;;7.07;4.93;;;21.10;93.60;;;;;;5156814;27;20078;-73
2023/06/07 12:43:43;;;;;;;9.45;5.50;;;21.20;93.60;;;;;;5156705;27;20061;-73
2023/06/07 12:46:09;;;;;;;10.15;5.72;;;21.20;93.80;;;;;;5139393;27;20034;-73